sensor_id;sensor_type;location;lat;lon;timestamp;pressure;altitude;pressure_sealevel;temperature;humidity
72330;BME280;60660;52.076;5.110;2023-03-21T00:00:04;101697.15;;;8.77;43.65
72330;BME280;60660;52.076;5.110;2023-03-21T00:02:24;101691.53;;;9.72;42.18
72330;BME280;60660;52.076;5.110;2023-03-21T00:04:49;101690.44;;;8.87;43.16
72330;BME280;60660;52.076;5.110;2023-03-21T00:07:15;101683.08;;;7.30;45.71
72330;BME280;60660;52.076;5.110;2023-03-21T00:09:40;101686.45;;;8.20;44.78
72330;BME280;60660;52.076;5.110;2023-03-21T00:12:05;101684.49;;;7.99;44.71
72330;BME280;60660;52.076;5.110;2023-03-21T00:14:30;101676.60;;;8.32;45.15
72330;BME280;60660;52.076;5.110;2023-03-21T00:16:55;101679.73;;;8.55;44.72
72330;BME280;60660;52.076;5.110;2023-03-21T00:19:21;101674.83;;;8.85;44.18
72330;BME280;60660;52.076;5.110;2023-03-21T00:21:51;101674.36;;;8.85;44.09
72330;BME280;60660;52.076;5.110;2023-03-21T00:24:12;101673.65;;;8.87;43.75
72330;BME280;60660;52.076;5.110;2023-03-21T00:26:37;101673.90;;;8.50;43.65
72330;BME280;60660;52.076;5.110;2023-03-21T00:29:03;101671.74;;;9.62;42.55
72330;BME280;60660;52.076;5.110;2023-03-21T00:31:29;101669.35;;;8.87;42.92
72330;BME280;60660;52.076;5.110;2023-03-21T00:33:54;101668.83;;;9.25;42.13
72330;BME280;60660;52.076;5.110;2023-03-21T00:36:19;101669.14;;;8.68;42.95
72330;BME280;60660;52.076;5.110;2023-03-21T00:38:45;101665.97;;;8.55;43.70
72330;BME280;60660;52.076;5.110;2023-03-21T00:41:11;101660.81;;;9.77;42.28
72330;BME280;60660;52.076;5.110;2023-03-21T00:43:36;101662.01;;;10.12;41.58
72330;BME280;60660;52.076;5.110;2023-03-21T00:46:07;101660.67;;;9.43;42.30
72330;BME280;60660;52.076;5.110;2023-03-21T00:48:27;101659.41;;;9.37;42.51
72330;BME280;60660;52.076;5.110;2023-03-21T00:51:00;101655.25;;;9.18;42.27
72330;BME280;60660;52.076;5.110;2023-03-21T00:53:18;101651.28;;;9.36;41.98
72330;BME280;60660;52.076;5.110;2023-03-21T00:55:43;101651.53;;;8.94;42.82
72330;BME280;60660;52.076;5.110;2023-03-21T00:58:08;101646.78;;;8.80;43.48
72330;BME280;60660;52.076;5.110;2023-03-21T01:00:34;101644.38;;;9.08;43.03
72330;BME280;60660;52.076;5.110;2023-03-21T01:02:58;101644.57;;;9.39;42.59
72330;BME280;60660;52.076;5.110;2023-03-21T01:05:24;101637.85;;;9.18;42.89
72330;BME280;60660;52.076;5.110;2023-03-21T01:07:48;101638.57;;;9.88;41.68
72330;BME280;60660;52.076;5.110;2023-03-21T01:10:14;101630.08;;;9.52;42.05
72330;BME280;60660;52.076;5.110;2023-03-21T01:12:39;101627.79;;;9.42;42.18
72330;BME280;60660;52.076;5.110;2023-03-21T01:15:06;101624.74;;;8.61;43.36
72330;BME280;60660;52.076;5.110;2023-03-21T01:17:30;101623.24;;;8.79;43.35
72330;BME280;60660;52.076;5.110;2023-03-21T01:19:56;101621.17;;;8.46;43.76
72330;BME280;60660;52.076;5.110;2023-03-21T01:22:23;101622.06;;;8.78;43.45
72330;BME280;60660;52.076;5.110;2023-03-21T01:24:46;101620.51;;;8.62;44.04
72330;BME280;60660;52.076;5.110;2023-03-21T01:27:11;101620.12;;;8.96;43.60
72330;BME280;60660;52.076;5.110;2023-03-21T01:29:37;101615.97;;;9.61;42.51
72330;BME280;60660;52.076;5.110;2023-03-21T01:32:03;101617.07;;;8.77;43.84
72330;BME280;60660;52.076;5.110;2023-03-21T01:34:28;101612.52;;;6.95;46.35
72330;BME280;60660;52.076;5.110;2023-03-21T01:36:53;101613.30;;;8.93;44.32
72330;BME280;60660;52.076;5.110;2023-03-21T01:39:19;101612.01;;;8.69;43.93
72330;BME280;60660;52.076;5.110;2023-03-21T01:41:44;101608.05;;;8.47;44.09
72330;BME280;60660;52.076;5.110;2023-03-21T01:44:16;101605.35;;;9.06;43.17
72330;BME280;60660;52.076;5.110;2023-03-21T01:46:38;101600.67;;;8.57;43.57
72330;BME280;60660;52.076;5.110;2023-03-21T01:49:03;101598.46;;;7.92;45.21
72330;BME280;60660;52.076;5.110;2023-03-21T01:51:27;101595.05;;;8.14;44.94
72330;BME280;60660;52.076;5.110;2023-03-21T01:53:52;101596.57;;;7.84;45.51
72330;BME280;60660;52.076;5.110;2023-03-21T01:56:21;101592.93;;;8.62;44.25
72330;BME280;60660;52.076;5.110;2023-03-21T01:58:44;101590.84;;;9.20;43.85
72330;BME280;60660;52.076;5.110;2023-03-21T02:01:08;101587.27;;;8.88;43.69
72330;BME280;60660;52.076;5.110;2023-03-21T02:03:34;101584.13;;;9.05;43.05
72330;BME280;60660;52.076;5.110;2023-03-21T02:06:01;101582.53;;;8.69;43.34
72330;BME280;60660;52.076;5.110;2023-03-21T02:08:25;101580.72;;;8.41;43.83
72330;BME280;60660;52.076;5.110;2023-03-21T02:10:51;101575.31;;;9.22;42.62
72330;BME280;60660;52.076;5.110;2023-03-21T02:13:17;101570.29;;;9.17;42.54
72330;BME280;60660;52.076;5.110;2023-03-21T02:15:48;101566.49;;;8.80;43.03
72330;BME280;60660;52.076;5.110;2023-03-21T02:18:12;101564.51;;;9.24;42.42
72330;BME280;60660;52.076;5.110;2023-03-21T02:20:58;101560.96;;;9.58;42.07
72330;BME280;60660;52.076;5.110;2023-03-21T02:23:09;101559.18;;;9.38;41.92
72330;BME280;60660;52.076;5.110;2023-03-21T02:26:20;101553.74;;;9.35;41.84
72330;BME280;60660;52.076;5.110;2023-03-21T02:27:52;101551.98;;;9.63;41.38
72330;BME280;60660;52.076;5.110;2023-03-21T02:30:30;101551.27;;;9.87;40.83
72330;BME280;60660;52.076;5.110;2023-03-21T02:32:54;101550.67;;;9.58;41.14
72330;BME280;60660;52.076;5.110;2023-03-21T02:35:30;101551.51;;;9.99;40.53
72330;BME280;60660;52.076;5.110;2023-03-21T02:37:31;101549.58;;;9.27;41.63
72330;BME280;60660;52.076;5.110;2023-03-21T02:40:02;101547.52;;;10.25;40.99
72330;BME280;60660;52.076;5.110;2023-03-21T02:42:26;101546.14;;;10.26;40.56
72330;BME280;60660;52.076;5.110;2023-03-21T02:44:50;101540.23;;;10.02;40.93
72330;BME280;60660;52.076;5.110;2023-03-21T02:47:15;101538.39;;;9.47;41.31
72330;BME280;60660;52.076;5.110;2023-03-21T02:49:41;101537.58;;;8.91;42.51
72330;BME280;60660;52.076;5.110;2023-03-21T02:52:04;101534.36;;;9.13;42.03
72330;BME280;60660;52.076;5.110;2023-03-21T02:54:29;101534.40;;;8.62;42.60
72330;BME280;60660;52.076;5.110;2023-03-21T02:56:55;101533.79;;;9.18;42.41
72330;BME280;60660;52.076;5.110;2023-03-21T02:59:21;101528.65;;;9.77;41.49
72330;BME280;60660;52.076;5.110;2023-03-21T03:01:44;101528.23;;;9.64;41.55
72330;BME280;60660;52.076;5.110;2023-03-21T03:04:19;101530.73;;;10.14;41.05
72330;BME280;60660;52.076;5.110;2023-03-21T03:06:40;101527.44;;;9.19;41.63
72330;BME280;60660;52.076;5.110;2023-03-21T03:09:13;101532.51;;;8.30;43.71
72330;BME280;60660;52.076;5.110;2023-03-21T03:11:28;101530.09;;;9.00;42.77
72330;BME280;60660;52.076;5.110;2023-03-21T03:13:59;101529.83;;;8.71;43.15
72330;BME280;60660;52.076;5.110;2023-03-21T03:16:23;101530.80;;;9.08;42.59
72330;BME280;60660;52.076;5.110;2023-03-21T03:18:48;101530.02;;;9.21;42.16
72330;BME280;60660;52.076;5.110;2023-03-21T03:21:12;101528.09;;;9.12;42.81
72330;BME280;60660;52.076;5.110;2023-03-21T03:23:40;101530.39;;;8.53;42.85
72330;BME280;60660;52.076;5.110;2023-03-21T03:26:03;101524.78;;;9.08;42.42
72330;BME280;60660;52.076;5.110;2023-03-21T03:28:27;101523.86;;;8.91;42.77
72330;BME280;60660;52.076;5.110;2023-03-21T03:30:51;101524.17;;;9.21;42.16
72330;BME280;60660;52.076;5.110;2023-03-21T03:33:16;101520.02;;;9.26;41.62
72330;BME280;60660;52.076;5.110;2023-03-21T03:35:40;101521.42;;;8.81;42.38
72330;BME280;60660;52.076;5.110;2023-03-21T03:38:07;101520.05;;;9.00;42.05
72330;BME280;60660;52.076;5.110;2023-03-21T03:40:38;101515.34;;;8.21;42.94
72330;BME280;60660;52.076;5.110;2023-03-21T03:43:00;101516.02;;;8.93;42.31
72330;BME280;60660;52.076;5.110;2023-03-21T03:45:33;101517.40;;;9.97;40.86
72330;BME280;60660;52.076;5.110;2023-03-21T03:47:52;101514.85;;;9.29;41.61
72330;BME280;60660;52.076;5.110;2023-03-21T03:50:19;101517.85;;;9.47;41.54
72330;BME280;60660;52.076;5.110;2023-03-21T03:52:43;101513.44;;;9.59;41.28
72330;BME280;60660;52.076;5.110;2023-03-21T03:55:05;101515.28;;;8.46;42.99
72330;BME280;60660;52.076;5.110;2023-03-21T03:57:30;101516.13;;;8.47;43.44
72330;BME280;60660;52.076;5.110;2023-03-21T03:59:55;101513.73;;;8.80;42.44
72330;BME280;60660;52.076;5.110;2023-03-21T04:02:23;101512.43;;;9.12;41.86
72330;BME280;60660;52.076;5.110;2023-03-21T04:04:47;101512.08;;;9.33;41.81
72330;BME280;60660;52.076;5.110;2023-03-21T04:07:11;101508.81;;;9.34;41.86
72330;BME280;60660;52.076;5.110;2023-03-21T04:09:36;101503.71;;;8.68;42.64
72330;BME280;60660;52.076;5.110;2023-03-21T04:12:02;101499.85;;;7.33;43.86
72330;BME280;60660;52.076;5.110;2023-03-21T04:14:27;101499.01;;;8.53;43.14
72330;BME280;60660;52.076;5.110;2023-03-21T04:16:52;101500.49;;;8.11;43.40
72330;BME280;60660;52.076;5.110;2023-03-21T04:19:18;101501.06;;;8.29;43.77
72330;BME280;60660;52.076;5.110;2023-03-21T04:21:45;101497.19;;;7.75;44.91
72330;BME280;60660;52.076;5.110;2023-03-21T04:24:09;101494.66;;;9.09;42.35
72330;BME280;60660;52.076;5.110;2023-03-21T04:26:35;101492.84;;;9.21;41.68
72330;BME280;60660;52.076;5.110;2023-03-21T04:29:00;101490.89;;;9.39;41.46
72330;BME280;60660;52.076;5.110;2023-03-21T04:31:25;101493.90;;;8.63;42.08
72330;BME280;60660;52.076;5.110;2023-03-21T04:33:50;101494.49;;;9.35;41.77
72330;BME280;60660;52.076;5.110;2023-03-21T04:36:16;101491.74;;;8.23;42.97
72330;BME280;60660;52.076;5.110;2023-03-21T04:38:41;101492.60;;;8.40;43.68
72330;BME280;60660;52.076;5.110;2023-03-21T04:41:07;101491.60;;;8.39;43.03
72330;BME280;60660;52.076;5.110;2023-03-21T04:43:32;101487.43;;;9.57;41.46
72330;BME280;60660;52.076;5.110;2023-03-21T04:45:57;101487.79;;;9.87;40.87
72330;BME280;60660;52.076;5.110;2023-03-21T04:48:23;101489.21;;;9.08;42.41
72330;BME280;60660;52.076;5.110;2023-03-21T04:50:48;101488.67;;;8.95;41.76
72330;BME280;60660;52.076;5.110;2023-03-21T04:53:13;101489.10;;;8.91;41.84
72330;BME280;60660;52.076;5.110;2023-03-21T04:55:38;101486.16;;;8.76;41.99
72330;BME280;60660;52.076;5.110;2023-03-21T04:58:04;101482.55;;;9.08;41.56
72330;BME280;60660;52.076;5.110;2023-03-21T05:00:29;101480.96;;;8.42;42.23
72330;BME280;60660;52.076;5.110;2023-03-21T05:02:54;101471.32;;;8.62;42.44
72330;BME280;60660;52.076;5.110;2023-03-21T05:05:21;101470.55;;;8.34;42.98
72330;BME280;60660;52.076;5.110;2023-03-21T05:07:46;101471.80;;;8.74;42.84
72330;BME280;60660;52.076;5.110;2023-03-21T05:10:11;101471.42;;;9.36;41.32
72330;BME280;60660;52.076;5.110;2023-03-21T05:12:37;101468.31;;;9.11;40.88
72330;BME280;60660;52.076;5.110;2023-03-21T05:15:03;101472.69;;;9.80;39.80
72330;BME280;60660;52.076;5.110;2023-03-21T05:17:28;101472.46;;;9.77;39.11
72330;BME280;60660;52.076;5.110;2023-03-21T05:19:54;101467.74;;;10.51;38.03
72330;BME280;60660;52.076;5.110;2023-03-21T05:22:19;101464.30;;;10.66;38.35
72330;BME280;60660;52.076;5.110;2023-03-21T05:24:45;101464.09;;;9.89;38.18
72330;BME280;60660;52.076;5.110;2023-03-21T05:27:10;101462.37;;;9.57;38.53
72330;BME280;60660;52.076;5.110;2023-03-21T05:29:35;101459.61;;;10.03;37.93
72330;BME280;60660;52.076;5.110;2023-03-21T05:32:01;101461.38;;;9.71;38.69
72330;BME280;60660;52.076;5.110;2023-03-21T05:34:27;101459.98;;;9.06;39.37
72330;BME280;60660;52.076;5.110;2023-03-21T05:36:52;101455.71;;;8.30;40.64
72330;BME280;60660;52.076;5.110;2023-03-21T05:39:20;101453.51;;;8.40;41.75
72330;BME280;60660;52.076;5.110;2023-03-21T05:41:42;101453.89;;;8.33;42.31
72330;BME280;60660;52.076;5.110;2023-03-21T05:44:08;101451.74;;;8.47;41.81
72330;BME280;60660;52.076;5.110;2023-03-21T05:46:34;101452.77;;;8.77;41.29
72330;BME280;60660;52.076;5.110;2023-03-21T05:48:59;101451.22;;;8.62;41.04
72330;BME280;60660;52.076;5.110;2023-03-21T05:51:30;101451.81;;;9.55;39.85
72330;BME280;60660;52.076;5.110;2023-03-21T05:53:50;101453.48;;;9.66;39.54
72330;BME280;60660;52.076;5.110;2023-03-21T05:56:15;101453.41;;;9.44;39.45
72330;BME280;60660;52.076;5.110;2023-03-21T05:58:40;101450.60;;;9.15;40.12
72330;BME280;60660;52.076;5.110;2023-03-21T06:01:06;101451.79;;;9.06;40.23
72330;BME280;60660;52.076;5.110;2023-03-21T06:03:31;101452.43;;;8.64;40.89
72330;BME280;60660;52.076;5.110;2023-03-21T06:06:02;101452.74;;;8.60;41.23
72330;BME280;60660;52.076;5.110;2023-03-21T06:08:29;101452.03;;;8.82;40.92
72330;BME280;60660;52.076;5.110;2023-03-21T06:10:48;101450.53;;;8.83;40.65
72330;BME280;60660;52.076;5.110;2023-03-21T06:13:13;101450.14;;;8.62;41.18
72330;BME280;60660;52.076;5.110;2023-03-21T06:15:38;101454.16;;;8.46;41.73
72330;BME280;60660;52.076;5.110;2023-03-21T06:18:04;101451.00;;;9.03;40.93
72330;BME280;60660;52.076;5.110;2023-03-21T06:20:40;101450.73;;;9.66;39.65
72330;BME280;60660;52.076;5.110;2023-03-21T06:22:54;101453.88;;;9.28;40.15
72330;BME280;60660;52.076;5.110;2023-03-21T06:25:21;101457.07;;;9.66;39.31
72330;BME280;60660;52.076;5.110;2023-03-21T06:27:46;101454.17;;;9.43;39.79
72330;BME280;60660;52.076;5.110;2023-03-21T06:30:14;101452.31;;;9.18;40.37
72330;BME280;60660;52.076;5.110;2023-03-21T06:32:36;101455.20;;;9.19;40.02
72330;BME280;60660;52.076;5.110;2023-03-21T06:35:02;101459.95;;;9.60;40.03
72330;BME280;60660;52.076;5.110;2023-03-21T06:37:27;101461.05;;;9.78;39.74
72330;BME280;60660;52.076;5.110;2023-03-21T06:39:52;101460.12;;;10.31;39.08
72330;BME280;60660;52.076;5.110;2023-03-21T06:42:18;101457.22;;;9.40;39.86
72330;BME280;60660;52.076;5.110;2023-03-21T06:44:48;101458.85;;;9.62;39.88
72330;BME280;60660;52.076;5.110;2023-03-21T06:47:08;101459.12;;;8.48;41.35
72330;BME280;60660;52.076;5.110;2023-03-21T06:49:34;101458.13;;;9.18;40.57
72330;BME280;60660;52.076;5.110;2023-03-21T06:51:59;101456.79;;;9.40;40.41
72330;BME280;60660;52.076;5.110;2023-03-21T06:54:24;101457.07;;;9.05;40.48
72330;BME280;60660;52.076;5.110;2023-03-21T06:56:50;101458.86;;;8.64;41.25
72330;BME280;60660;52.076;5.110;2023-03-21T06:59:16;101463.31;;;8.29;41.85
72330;BME280;60660;52.076;5.110;2023-03-21T07:01:42;101463.02;;;8.87;41.20
72330;BME280;60660;52.076;5.110;2023-03-21T07:04:07;101463.34;;;8.70;41.29
72330;BME280;60660;52.076;5.110;2023-03-21T07:06:33;101468.08;;;9.81;39.53
72330;BME280;60660;52.076;5.110;2023-03-21T07:08:58;101465.61;;;8.88;41.46
72330;BME280;60660;52.076;5.110;2023-03-21T07:11:24;101464.80;;;8.76;40.85
72330;BME280;60660;52.076;5.110;2023-03-21T07:13:49;101471.67;;;8.52;41.25
72330;BME280;60660;52.076;5.110;2023-03-21T07:16:14;101468.62;;;9.96;40.18
72330;BME280;60660;52.076;5.110;2023-03-21T07:18:39;101468.23;;;9.62;39.57
72330;BME280;60660;52.076;5.110;2023-03-21T07:21:05;101469.56;;;9.17;40.59
72330;BME280;60660;52.076;5.110;2023-03-21T07:23:30;101462.77;;;8.27;42.22
72330;BME280;60660;52.076;5.110;2023-03-21T07:25:55;101462.39;;;8.36;42.33
72330;BME280;60660;52.076;5.110;2023-03-21T07:28:21;101459.73;;;8.57;41.78
72330;BME280;60660;52.076;5.110;2023-03-21T07:30:51;101457.21;;;7.57;43.48
72330;BME280;60660;52.076;5.110;2023-03-21T07:33:11;101450.97;;;8.30;43.68
72330;BME280;60660;52.076;5.110;2023-03-21T07:35:37;101441.50;;;7.50;44.99
72330;BME280;60660;52.076;5.110;2023-03-21T07:38:03;101431.95;;;8.70;43.61
72330;BME280;60660;52.076;5.110;2023-03-21T07:40:27;101430.91;;;7.93;42.99
72330;BME280;60660;52.076;5.110;2023-03-21T07:42:53;101429.05;;;8.05;43.59
72330;BME280;60660;52.076;5.110;2023-03-21T07:45:18;101430.90;;;8.74;42.80
72330;BME280;60660;52.076;5.110;2023-03-21T07:47:44;101427.51;;;8.41;43.18
72330;BME280;60660;52.076;5.110;2023-03-21T07:50:09;101429.38;;;8.69;42.55
72330;BME280;60660;52.076;5.110;2023-03-21T07:52:35;101432.82;;;8.85;43.11
72330;BME280;60660;52.076;5.110;2023-03-21T07:54:59;101433.40;;;8.74;43.03
72330;BME280;60660;52.076;5.110;2023-03-21T07:57:25;101437.73;;;8.71;43.30
72330;BME280;60660;52.076;5.110;2023-03-21T07:59:50;101440.56;;;8.53;43.37
72330;BME280;60660;52.076;5.110;2023-03-21T08:02:16;101436.46;;;8.50;43.56
72330;BME280;60660;52.076;5.110;2023-03-21T08:04:41;101432.53;;;7.67;44.47
72330;BME280;60660;52.076;5.110;2023-03-21T08:07:06;101428.04;;;8.27;44.12
72330;BME280;60660;52.076;5.110;2023-03-21T08:09:31;101422.69;;;7.97;43.41
72330;BME280;60660;52.076;5.110;2023-03-21T08:11:57;101425.57;;;7.55;44.51
72330;BME280;60660;52.076;5.110;2023-03-21T08:14:23;101428.66;;;8.95;43.62
72330;BME280;60660;52.076;5.110;2023-03-21T08:16:48;101426.89;;;8.16;44.23
72330;BME280;60660;52.076;5.110;2023-03-21T08:19:13;101426.14;;;7.86;44.60
72330;BME280;60660;52.076;5.110;2023-03-21T08:21:38;101424.86;;;8.39;44.23
72330;BME280;60660;52.076;5.110;2023-03-21T08:24:04;101419.48;;;8.35;44.36
72330;BME280;60660;52.076;5.110;2023-03-21T08:26:29;101419.94;;;8.32;44.13
72330;BME280;60660;52.076;5.110;2023-03-21T08:28:54;101419.57;;;8.28;44.85
72330;BME280;60660;52.076;5.110;2023-03-21T08:31:20;101414.05;;;7.54;45.45
72330;BME280;60660;52.076;5.110;2023-03-21T08:33:45;101408.47;;;7.96;45.65
72330;BME280;60660;52.076;5.110;2023-03-21T08:36:11;101400.42;;;8.83;43.77
72330;BME280;60660;52.076;5.110;2023-03-21T08:38:37;101396.94;;;8.04;44.27
72330;BME280;60660;52.076;5.110;2023-03-21T08:41:02;101395.09;;;8.05;45.13
72330;BME280;60660;52.076;5.110;2023-03-21T08:43:28;101395.19;;;8.40;44.48
72330;BME280;60660;52.076;5.110;2023-03-21T08:45:58;101396.59;;;10.09;42.39
72330;BME280;60660;52.076;5.110;2023-03-21T08:48:19;101391.75;;;8.48;43.71
72330;BME280;60660;52.076;5.110;2023-03-21T08:50:45;101384.21;;;9.60;41.97
72330;BME280;60660;52.076;5.110;2023-03-21T08:53:11;101385.42;;;9.88;41.01
72330;BME280;60660;52.076;5.110;2023-03-21T08:55:36;101383.88;;;9.64;40.56
72330;BME280;60660;52.076;5.110;2023-03-21T08:58:02;101379.34;;;9.75;40.18
72330;BME280;60660;52.076;5.110;2023-03-21T09:00:28;101376.20;;;9.38;41.07
72330;BME280;60660;52.076;5.110;2023-03-21T09:02:53;101375.77;;;9.12;41.76
72330;BME280;60660;52.076;5.110;2023-03-21T09:05:19;101374.29;;;8.98;41.76
72330;BME280;60660;52.076;5.110;2023-03-21T09:07:44;101371.75;;;8.90;42.13
72330;BME280;60660;52.076;5.110;2023-03-21T09:10:12;101368.01;;;6.94;44.99
72330;BME280;60660;52.076;5.110;2023-03-21T09:12:34;101365.27;;;7.20;45.03
72330;BME280;60660;52.076;5.110;2023-03-21T09:15:00;101362.95;;;7.01;46.36
72330;BME280;60660;52.076;5.110;2023-03-21T09:17:26;101358.42;;;8.25;44.79
72330;BME280;60660;52.076;5.110;2023-03-21T09:19:51;101360.45;;;8.41;43.97
72330;BME280;60660;52.076;5.110;2023-03-21T09:22:16;101354.20;;;8.74;42.96
72330;BME280;60660;52.076;5.110;2023-03-21T09:24:41;101350.84;;;8.95;42.65
72330;BME280;60660;52.076;5.110;2023-03-21T09:27:09;101349.89;;;9.19;42.68
72330;BME280;60660;52.076;5.110;2023-03-21T09:29:33;101342.16;;;9.61;42.51
72330;BME280;60660;52.076;5.110;2023-03-21T09:31:58;101340.50;;;9.45;42.13
72330;BME280;60660;52.076;5.110;2023-03-21T09:34:24;101337.22;;;8.57;43.20
72330;BME280;60660;52.076;5.110;2023-03-21T09:36:49;101342.91;;;9.44;42.21
72330;BME280;60660;52.076;5.110;2023-03-21T09:39:14;101339.83;;;9.65;41.98
72330;BME280;60660;52.076;5.110;2023-03-21T09:41:55;101343.85;;;9.12;42.35
72330;BME280;60660;52.076;5.110;2023-03-21T09:44:14;101348.02;;;7.64;45.00
72330;BME280;60660;52.076;5.110;2023-03-21T09:46:41;101340.22;;;8.88;43.97
72330;BME280;60660;52.076;5.110;2023-03-21T09:48:59;101342.51;;;8.17;44.98
72330;BME280;60660;52.076;5.110;2023-03-21T09:51:24;101334.25;;;8.48;43.61
72330;BME280;60660;52.076;5.110;2023-03-21T09:53:47;101338.70;;;9.48;42.53
72330;BME280;60660;52.076;5.110;2023-03-21T09:56:12;101338.86;;;9.45;42.93
72330;BME280;60660;52.076;5.110;2023-03-21T09:58:40;101343.59;;;9.81;41.78
72330;BME280;60660;52.076;5.110;2023-03-21T10:01:06;101342.54;;;10.37;41.48
72330;BME280;60660;52.076;5.110;2023-03-21T10:03:30;101344.67;;;10.02;41.55
72330;BME280;60660;52.076;5.110;2023-03-21T10:05:55;101337.25;;;8.40;44.53
72330;BME280;60660;52.076;5.110;2023-03-21T10:08:23;101339.39;;;8.71;44.93
72330;BME280;60660;52.076;5.110;2023-03-21T10:10:46;101344.38;;;10.50;41.64
72330;BME280;60660;52.076;5.110;2023-03-21T10:13:14;101337.89;;;11.40;40.22
72330;BME280;60660;52.076;5.110;2023-03-21T10:15:35;101343.66;;;10.76;40.36
72330;BME280;60660;52.076;5.110;2023-03-21T10:18:02;101335.20;;;11.19;39.72
72330;BME280;60660;52.076;5.110;2023-03-21T10:20:29;101336.14;;;10.24;40.32
72330;BME280;60660;52.076;5.110;2023-03-21T10:22:54;101333.56;;;9.38;40.76
72330;BME280;60660;52.076;5.110;2023-03-21T10:25:21;101331.97;;;9.51;42.02
72330;BME280;60660;52.076;5.110;2023-03-21T10:27:42;101330.54;;;9.17;41.35
72330;BME280;60660;52.076;5.110;2023-03-21T10:30:18;101325.47;;;9.29;41.17
72330;BME280;60660;52.076;5.110;2023-03-21T10:32:34;101315.46;;;8.46;42.23
72330;BME280;60660;52.076;5.110;2023-03-21T10:35:00;101319.45;;;10.42;41.28
72330;BME280;60660;52.076;5.110;2023-03-21T10:37:25;101312.49;;;11.04;39.46
72330;BME280;60660;52.076;5.110;2023-03-21T10:39:52;101307.07;;;11.16;38.56
72330;BME280;60660;52.076;5.110;2023-03-21T10:42:19;101318.64;;;11.66;37.90
72330;BME280;60660;52.076;5.110;2023-03-21T10:44:45;101324.41;;;10.38;39.06
72330;BME280;60660;52.076;5.110;2023-03-21T10:47:08;101314.39;;;10.06;40.11
72330;BME280;60660;52.076;5.110;2023-03-21T10:49:35;101321.82;;;11.22;39.59
72330;BME280;60660;52.076;5.110;2023-03-21T10:52:02;101323.45;;;12.12;37.80
72330;BME280;60660;52.076;5.110;2023-03-21T10:54:28;101328.03;;;11.70;38.01
72330;BME280;60660;52.076;5.110;2023-03-21T10:56:55;101326.53;;;11.91;37.55
72330;BME280;60660;52.076;5.110;2023-03-21T10:59:18;101333.34;;;11.90;38.33
72330;BME280;60660;52.076;5.110;2023-03-21T11:01:42;101330.78;;;10.55;39.17
72330;BME280;60660;52.076;5.110;2023-03-21T11:04:09;101333.91;;;11.26;38.60
72330;BME280;60660;52.076;5.110;2023-03-21T11:06:33;101326.31;;;11.29;38.60
72330;BME280;60660;52.076;5.110;2023-03-21T11:09:00;101325.82;;;12.11;37.34
72330;BME280;60660;52.076;5.110;2023-03-21T11:11:25;101322.41;;;12.29;36.95
72330;BME280;60660;52.076;5.110;2023-03-21T11:13:56;101320.38;;;11.23;37.18
72330;BME280;60660;52.076;5.110;2023-03-21T11:16:22;101322.61;;;11.57;37.04
72330;BME280;60660;52.076;5.110;2023-03-21T11:18:42;101321.25;;;11.90;36.69
72330;BME280;60660;52.076;5.110;2023-03-21T11:21:07;101315.73;;;13.03;35.81
72330;BME280;60660;52.076;5.110;2023-03-21T11:23:33;101297.96;;;12.77;35.80
72330;BME280;60660;52.076;5.110;2023-03-21T11:25:59;101314.63;;;13.21;35.71
72330;BME280;60660;52.076;5.110;2023-03-21T11:28:32;101297.76;;;13.74;34.77
72330;BME280;60660;52.076;5.110;2023-03-21T11:30:50;101291.28;;;13.07;35.22
72330;BME280;60660;52.076;5.110;2023-03-21T11:33:13;101285.08;;;13.66;34.15
72330;BME280;60660;52.076;5.110;2023-03-21T11:35:39;101287.05;;;13.64;34.42
72330;BME280;60660;52.076;5.110;2023-03-21T11:38:05;101278.85;;;13.71;34.94
72330;BME280;60660;52.076;5.110;2023-03-21T11:40:31;101282.53;;;13.77;34.65
72330;BME280;60660;52.076;5.110;2023-03-21T11:42:56;101288.11;;;13.32;34.33
72330;BME280;60660;52.076;5.110;2023-03-21T11:45:23;101287.34;;;13.42;35.03
72330;BME280;60660;52.076;5.110;2023-03-21T11:47:47;101291.32;;;13.41;34.53
72330;BME280;60660;52.076;5.110;2023-03-21T11:50:25;101296.19;;;14.75;32.86
72330;BME280;60660;52.076;5.110;2023-03-21T11:52:40;101293.98;;;13.45;33.36
72330;BME280;60660;52.076;5.110;2023-03-21T11:55:14;101296.21;;;13.13;34.37
72330;BME280;60660;52.076;5.110;2023-03-21T11:57:34;101292.49;;;12.99;34.93
72330;BME280;60660;52.076;5.110;2023-03-21T11:59:56;101292.55;;;13.08;34.54
72330;BME280;60660;52.076;5.110;2023-03-21T12:02:35;101284.70;;;11.92;34.90
72330;BME280;60660;52.076;5.110;2023-03-21T12:04:46;101288.15;;;10.30;37.50
72330;BME280;60660;52.076;5.110;2023-03-21T12:07:21;101288.63;;;11.22;37.10
72330;BME280;60660;52.076;5.110;2023-03-21T12:09:38;101286.84;;;11.48;36.58
72330;BME280;60660;52.076;5.110;2023-03-21T12:12:08;101283.64;;;11.49;36.49
72330;BME280;60660;52.076;5.110;2023-03-21T12:14:31;101284.36;;;12.31;35.91
72330;BME280;60660;52.076;5.110;2023-03-21T12:16:59;101279.19;;;12.01;36.11
72330;BME280;60660;52.076;5.110;2023-03-21T12:19:32;101277.64;;;11.68;36.99
72330;BME280;60660;52.076;5.110;2023-03-21T12:21:48;101265.74;;;11.28;36.14
72330;BME280;60660;52.076;5.110;2023-03-21T12:24:11;101258.27;;;13.15;35.00
72330;BME280;60660;52.076;5.110;2023-03-21T12:26:38;101256.93;;;13.79;33.05
72330;BME280;60660;52.076;5.110;2023-03-21T12:29:07;101258.61;;;13.94;34.05
72330;BME280;60660;52.076;5.110;2023-03-21T12:31:29;101263.39;;;14.36;32.36
72330;BME280;60660;52.076;5.110;2023-03-21T12:33:57;101255.85;;;14.31;31.45
72330;BME280;60660;52.076;5.110;2023-03-21T12:36:24;101245.13;;;15.32;30.35
72330;BME280;60660;52.076;5.110;2023-03-21T12:38:42;101253.01;;;15.71;29.17
72330;BME280;60660;52.076;5.110;2023-03-21T12:41:15;101247.56;;;16.26;29.09
72330;BME280;60660;52.076;5.110;2023-03-21T12:43:35;101241.31;;;13.76;29.89
72330;BME280;60660;52.076;5.110;2023-03-21T12:45:57;101233.51;;;13.88;30.05